sensor_id;sensor_type;location;lat;lon;timestamp;pressure;altitude;pressure_sealevel;temperature;humidity
62462;BME280;48511;38.664;-9.202;2023-02-19T00:00:29;49860.28;;;-146.63;44.85
62462;BME280;48511;38.664;-9.202;2023-02-19T00:02:30;49870.16;;;-146.63;45.07
62462;BME280;48511;38.664;-9.202;2023-02-19T00:04:31;49878.06;;;-146.63;45.07
62462;BME280;48511;38.664;-9.202;2023-02-19T00:06:33;49905.69;;;-146.63;45.17
62462;BME280;48511;38.664;-9.202;2023-02-19T00:08:35;49897.78;;;-146.63;45.29
62462;BME280;48511;38.664;-9.202;2023-02-19T00:10:36;49878.06;;;-146.63;45.55
62462;BME280;48511;38.664;-9.202;2023-02-19T00:12:37;49921.47;;;-146.63;45.55
62462;BME280;48511;38.664;-9.202;2023-02-19T00:14:38;49814.91;;;-146.63;45.84
62462;BME280;48511;38.664;-9.202;2023-02-19T00:16:39;49901.75;;;-146.63;45.95
62462;BME280;48511;38.664;-9.202;2023-02-19T00:18:41;49905.69;;;-146.63;45.93
62462;BME280;48511;38.664;-9.202;2023-02-19T00:20:42;49899.75;;;-146.63;46.15
62462;BME280;48511;38.664;-9.202;2023-02-19T00:22:42;49885.94;;;-146.63;46.28
62462;BME280;48511;38.664;-9.202;2023-02-19T00:24:43;49889.91;;;-146.63;46.57
62462;BME280;48511;38.664;-9.202;2023-02-19T00:26:45;49889.91;;;-146.63;46.54
62462;BME280;48511;38.664;-9.202;2023-02-19T00:28:47;49901.75;;;-146.63;46.65
62462;BME280;48511;38.664;-9.202;2023-02-19T00:30:48;49885.94;;;-146.63;46.91
62462;BME280;48511;38.664;-9.202;2023-02-19T00:32:49;49905.69;;;-146.63;46.88
62462;BME280;48511;38.664;-9.202;2023-02-19T00:34:51;49864.25;;;-146.63;46.91
62462;BME280;48511;38.664;-9.202;2023-02-19T00:36:51;49907.66;;;-146.63;47.14
62462;BME280;48511;38.664;-9.202;2023-02-19T00:38:53;49903.72;;;-146.63;47.13
62462;BME280;48511;38.664;-9.202;2023-02-19T00:40:54;49854.38;;;-146.63;47.04
62462;BME280;48511;38.664;-9.202;2023-02-19T00:42:56;49931.34;;;-146.63;47.19
62462;BME280;48511;38.664;-9.202;2023-02-19T00:44:57;49907.66;;;-146.63;47.04
62462;BME280;48511;38.664;-9.202;2023-02-19T00:46:57;49911.59;;;-146.63;47.03
62462;BME280;48511;38.664;-9.202;2023-02-19T00:48:58;49883.97;;;-146.63;47.13
62462;BME280;48511;38.664;-9.202;2023-02-19T00:50:59;49882.00;;;-146.63;47.26
62462;BME280;48511;38.664;-9.202;2023-02-19T00:53:00;49909.63;;;-146.63;47.38
62462;BME280;48511;38.664;-9.202;2023-02-19T00:55:01;49878.06;;;-146.63;47.46
62462;BME280;48511;38.664;-9.202;2023-02-19T00:57:02;49870.16;;;-146.63;47.53
62462;BME280;48511;38.664;-9.202;2023-02-19T00:59:03;49882.00;;;-146.63;47.79
62462;BME280;48511;38.664;-9.202;2023-02-19T01:01:05;49850.44;;;-146.63;47.61
62462;BME280;48511;38.664;-9.202;2023-02-19T01:03:06;49909.63;;;-146.63;47.82
62462;BME280;48511;38.664;-9.202;2023-02-19T01:05:06;49889.91;;;-146.63;47.83
62462;BME280;48511;38.664;-9.202;2023-02-19T01:07:07;49882.00;;;-146.63;47.58
62462;BME280;48511;38.664;-9.202;2023-02-19T01:09:10;49874.09;;;-146.63;47.53
62462;BME280;48511;38.664;-9.202;2023-02-19T01:11:11;49880.03;;;-146.63;47.38
62462;BME280;48511;38.664;-9.202;2023-02-19T01:13:12;49885.94;;;-146.63;47.26
62462;BME280;48511;38.664;-9.202;2023-02-19T01:15:13;49878.06;;;-146.63;47.23
62462;BME280;48511;38.664;-9.202;2023-02-19T01:17:14;49907.66;;;-146.63;47.23
62462;BME280;48511;38.664;-9.202;2023-02-19T01:19:14;49878.06;;;-146.63;46.80
62462;BME280;48511;38.664;-9.202;2023-02-19T01:21:17;49911.59;;;-146.63;46.31
62462;BME280;48511;38.664;-9.202;2023-02-19T01:23:19;49889.91;;;-146.63;46.34
62462;BME280;48511;38.664;-9.202;2023-02-19T01:25:20;49895.81;;;-146.63;46.07
62462;BME280;48511;38.664;-9.202;2023-02-19T01:27:21;49848.44;;;-146.63;46.22
62462;BME280;48511;38.664;-9.202;2023-02-19T01:29:22;49893.84;;;-146.63;46.12
62462;BME280;48511;38.664;-9.202;2023-02-19T01:31:24;49923.44;;;-146.63;46.13
62462;BME280;48511;38.664;-9.202;2023-02-19T01:33:25;49893.84;;;-146.63;46.19
62462;BME280;48511;38.664;-9.202;2023-02-19T01:35:25;49913.59;;;-146.63;46.29
62462;BME280;48511;38.664;-9.202;2023-02-19T01:37:26;49868.19;;;-146.63;46.39
62462;BME280;48511;38.664;-9.202;2023-02-19T01:39:27;49887.91;;;-146.63;46.30
62462;BME280;48511;38.664;-9.202;2023-02-19T01:41:28;49883.97;;;-146.63;46.20
62462;BME280;48511;38.664;-9.202;2023-02-19T01:43:33;49882.00;;;-146.63;46.02
62462;BME280;48511;38.664;-9.202;2023-02-19T01:45:37;49878.06;;;-146.63;46.02
62462;BME280;48511;38.664;-9.202;2023-02-19T01:47:39;49850.44;;;-146.63;46.12
62462;BME280;48511;38.664;-9.202;2023-02-19T01:49:45;49907.66;;;-146.63;46.14
62462;BME280;48511;38.664;-9.202;2023-02-19T01:52:11;49885.94;;;-146.63;46.05
62462;BME280;48511;38.664;-9.202;2023-02-19T01:54:16;49885.94;;;-146.63;46.41
62462;BME280;48511;38.664;-9.202;2023-02-19T01:56:20;49862.25;;;-146.63;46.41
62462;BME280;48511;38.664;-9.202;2023-02-19T01:58:23;49907.66;;;-146.63;46.44
62462;BME280;48511;38.664;-9.202;2023-02-19T02:00:25;49889.91;;;-146.63;46.34
62462;BME280;48511;38.664;-9.202;2023-02-19T02:02:27;49882.00;;;-146.63;46.37
62462;BME280;48511;38.664;-9.202;2023-02-19T02:04:29;49882.00;;;-146.63;46.38
62462;BME280;48511;38.664;-9.202;2023-02-19T02:06:35;49903.72;;;-146.63;46.61
62462;BME280;48511;38.664;-9.202;2023-02-19T02:08:39;49911.59;;;-146.63;46.60
62462;BME280;48511;38.664;-9.202;2023-02-19T02:10:58;49878.06;;;-146.63;46.66
62462;BME280;48511;38.664;-9.202;2023-02-19T02:12:59;49893.84;;;-146.63;46.77
62462;BME280;48511;38.664;-9.202;2023-02-19T02:15:00;49858.31;;;-146.63;46.86
62462;BME280;48511;38.664;-9.202;2023-02-19T02:26:32;49897.78;;;-146.63;46.68
62462;BME280;48511;38.664;-9.202;2023-02-19T02:31:03;49905.69;;;-146.63;46.92
62462;BME280;48511;38.664;-9.202;2023-02-19T02:35:22;49882.00;;;-146.63;46.84
62462;BME280;48511;38.664;-9.202;2023-02-19T02:37:27;49850.44;;;-146.63;46.80
62462;BME280;48511;38.664;-9.202;2023-02-19T02:39:32;49897.78;;;-146.63;46.62
62462;BME280;48511;38.664;-9.202;2023-02-19T02:41:44;49874.09;;;-146.63;46.60
62462;BME280;48511;38.664;-9.202;2023-02-19T02:43:46;49893.84;;;-146.63;46.51
62462;BME280;48511;38.664;-9.202;2023-02-19T02:45:48;49883.97;;;-146.63;46.52
62462;BME280;48511;38.664;-9.202;2023-02-19T02:47:57;49864.25;;;-146.63;46.54
62462;BME280;48511;38.664;-9.202;2023-02-19T02:49:58;49905.69;;;-146.63;46.50
62462;BME280;48511;38.664;-9.202;2023-02-19T02:52:06;49834.63;;;-146.63;46.05
62462;BME280;48511;38.664;-9.202;2023-02-19T02:54:32;49897.78;;;-146.63;46.26
62462;BME280;48511;38.664;-9.202;2023-02-19T02:56:55;49901.75;;;-146.63;46.30
62462;BME280;48511;38.664;-9.202;2023-02-19T02:58:57;49921.47;;;-146.63;45.79
62462;BME280;48511;38.664;-9.202;2023-02-19T03:01:07;49887.91;;;-146.63;46.13
62462;BME280;48511;38.664;-9.202;2023-02-19T03:03:31;49891.88;;;-146.63;46.18
62462;BME280;48511;38.664;-9.202;2023-02-19T03:05:32;49878.06;;;-146.63;46.01
62462;BME280;48511;38.664;-9.202;2023-02-19T03:07:53;49868.19;;;-146.63;46.05
62462;BME280;48511;38.664;-9.202;2023-02-19T03:10:00;49868.19;;;-146.63;46.05
62462;BME280;48511;38.664;-9.202;2023-02-19T03:12:03;49893.84;;;-146.63;46.08
62462;BME280;48511;38.664;-9.202;2023-02-19T03:14:32;49923.44;;;-146.63;46.49
62462;BME280;48511;38.664;-9.202;2023-02-19T03:16:58;49878.06;;;-146.63;46.22
62462;BME280;48511;38.664;-9.202;2023-02-19T03:19:21;49885.94;;;-146.63;46.14
62462;BME280;48511;38.664;-9.202;2023-02-19T03:21:25;49893.84;;;-146.63;46.11
62462;BME280;48511;38.664;-9.202;2023-02-19T03:23:31;49870.16;;;-146.63;46.11
62462;BME280;48511;38.664;-9.202;2023-02-19T03:25:51;49931.34;;;-146.63;46.25
62462;BME280;48511;38.664;-9.202;2023-02-19T03:28:18;49893.84;;;-146.63;45.90
62462;BME280;48511;38.664;-9.202;2023-02-19T03:30:23;49874.09;;;-146.63;46.47
62462;BME280;48511;38.664;-9.202;2023-02-19T03:32:31;49846.47;;;-146.63;46.03
62462;BME280;48511;38.664;-9.202;2023-02-19T03:34:41;49895.81;;;-146.63;46.30
62462;BME280;48511;38.664;-9.202;2023-02-19T03:36:44;49862.25;;;-146.63;46.52
62462;BME280;48511;38.664;-9.202;2023-02-19T03:38:51;49883.97;;;-146.63;46.54
62462;BME280;48511;38.664;-9.202;2023-02-19T03:43:37;49848.44;;;-146.63;46.53
62462;BME280;48511;38.664;-9.202;2023-02-19T03:45:44;49882.00;;;-146.63;46.37
62462;BME280;48511;38.664;-9.202;2023-02-19T03:47:53;49854.38;;;-146.63;46.52
62462;BME280;48511;38.664;-9.202;2023-02-19T03:50:06;49921.47;;;-146.63;46.68
62462;BME280;48511;38.664;-9.202;2023-02-19T03:56:34;49885.94;;;-146.63;46.51
62462;BME280;48511;38.664;-9.202;2023-02-19T03:58:48;49893.84;;;-146.63;46.56
62462;BME280;48511;38.664;-9.202;2023-02-19T04:01:07;49903.72;;;-146.63;46.48
62462;BME280;48511;38.664;-9.202;2023-02-19T04:03:32;49870.16;;;-146.63;46.56
62462;BME280;48511;38.664;-9.202;2023-02-19T04:05:40;49874.09;;;-146.63;46.77
62462;BME280;48511;38.664;-9.202;2023-02-19T04:07:45;49858.31;;;-146.63;46.93
62462;BME280;48511;38.664;-9.202;2023-02-19T04:09:49;49860.28;;;-146.63;46.96
62462;BME280;48511;38.664;-9.202;2023-02-19T04:11:53;49838.59;;;-146.63;47.03
62462;BME280;48511;38.664;-9.202;2023-02-19T04:14:08;49899.75;;;-146.63;47.08
62462;BME280;48511;38.664;-9.202;2023-02-19T04:16:18;49905.69;;;-146.63;47.05
62462;BME280;48511;38.664;-9.202;2023-02-19T04:18:32;49878.06;;;-146.63;47.19
62462;BME280;48511;38.664;-9.202;2023-02-19T04:20:39;49885.94;;;-146.63;47.00
62462;BME280;48511;38.664;-9.202;2023-02-19T04:22:41;49899.75;;;-146.63;46.85
62462;BME280;48511;38.664;-9.202;2023-02-19T04:24:51;49909.63;;;-146.63;46.63
62462;BME280;48511;38.664;-9.202;2023-02-19T04:26:53;49905.69;;;-146.63;46.77
62462;BME280;48511;38.664;-9.202;2023-02-19T04:28:55;49925.41;;;-146.63;46.74
62462;BME280;48511;38.664;-9.202;2023-02-19T04:30:56;49927.41;;;-146.63;46.53
62462;BME280;48511;38.664;-9.202;2023-02-19T04:32:57;49903.72;;;-146.63;46.62
62462;BME280;48511;38.664;-9.202;2023-02-19T04:34:58;49866.22;;;-146.63;46.65
62462;BME280;48511;38.664;-9.202;2023-02-19T04:36:58;49883.97;;;-146.63;46.68
62462;BME280;48511;38.664;-9.202;2023-02-19T04:38:59;49882.00;;;-146.63;47.00
62462;BME280;48511;38.664;-9.202;2023-02-19T04:41:00;49907.66;;;-146.63;46.80
62462;BME280;48511;38.664;-9.202;2023-02-19T04:43:00;49903.72;;;-146.63;46.93
62462;BME280;48511;38.664;-9.202;2023-02-19T04:45:01;49880.03;;;-146.63;46.98
62462;BME280;48511;38.664;-9.202;2023-02-19T04:47:02;49885.94;;;-146.63;47.16
62462;BME280;48511;38.664;-9.202;2023-02-19T04:49:03;49860.28;;;-146.63;47.35
62462;BME280;48511;38.664;-9.202;2023-02-19T04:51:05;49889.91;;;-146.63;47.45
62462;BME280;48511;38.664;-9.202;2023-02-19T04:53:06;49862.25;;;-146.63;47.32
62462;BME280;48511;38.664;-9.202;2023-02-19T04:55:07;49891.88;;;-146.63;47.28
62462;BME280;48511;38.664;-9.202;2023-02-19T04:57:08;49862.25;;;-146.63;47.38
62462;BME280;48511;38.664;-9.202;2023-02-19T04:59:09;49885.94;;;-146.63;47.53
62462;BME280;48511;38.664;-9.202;2023-02-19T05:01:10;49866.22;;;-146.63;47.38
62462;BME280;48511;38.664;-9.202;2023-02-19T05:03:11;49897.78;;;-146.63;47.31
62462;BME280;48511;38.664;-9.202;2023-02-19T05:05:11;49874.09;;;-146.63;47.50
62462;BME280;48511;38.664;-9.202;2023-02-19T05:07:12;49889.91;;;-146.63;47.35
62462;BME280;48511;38.664;-9.202;2023-02-19T05:09:13;49889.91;;;-146.63;47.35
62462;BME280;48511;38.664;-9.202;2023-02-19T05:11:14;49897.78;;;-146.63;47.52
62462;BME280;48511;38.664;-9.202;2023-02-19T05:13:14;49885.94;;;-146.63;47.57
62462;BME280;48511;38.664;-9.202;2023-02-19T05:15:15;49876.09;;;-146.63;47.47
62462;BME280;48511;38.664;-9.202;2023-02-19T05:17:16;49874.09;;;-146.63;47.47
62462;BME280;48511;38.664;-9.202;2023-02-19T05:19:16;49874.09;;;-146.63;47.64
62462;BME280;48511;38.664;-9.202;2023-02-19T05:21:17;49891.88;;;-146.63;47.38
62462;BME280;48511;38.664;-9.202;2023-02-19T05:23:19;49913.59;;;-146.63;47.33
62462;BME280;48511;38.664;-9.202;2023-02-19T05:25:20;49909.63;;;-146.63;47.35
62462;BME280;48511;38.664;-9.202;2023-02-19T05:27:21;49909.63;;;-146.63;47.56
62462;BME280;48511;38.664;-9.202;2023-02-19T05:29:21;49905.69;;;-146.63;47.42
62462;BME280;48511;38.664;-9.202;2023-02-19T05:31:22;49909.63;;;-146.63;47.45
62462;BME280;48511;38.664;-9.202;2023-02-19T05:33:24;49911.59;;;-146.63;47.51
62462;BME280;48511;38.664;-9.202;2023-02-19T05:35:25;49891.88;;;-146.63;47.44
62462;BME280;48511;38.664;-9.202;2023-02-19T05:37:26;49893.84;;;-146.63;47.48
62462;BME280;48511;38.664;-9.202;2023-02-19T05:39:27;49870.16;;;-146.63;47.33
62462;BME280;48511;38.664;-9.202;2023-02-19T05:41:29;49883.97;;;-146.63;47.62
62462;BME280;48511;38.664;-9.202;2023-02-19T05:43:29;49874.09;;;-146.63;47.47
62462;BME280;48511;38.664;-9.202;2023-02-19T05:45:30;49874.09;;;-146.63;47.53
62462;BME280;48511;38.664;-9.202;2023-02-19T05:47:31;49891.88;;;-146.63;47.31
62462;BME280;48511;38.664;-9.202;2023-02-19T05:49:32;49905.69;;;-146.63;47.27
62462;BME280;48511;38.664;-9.202;2023-02-19T05:51:32;49913.59;;;-146.63;47.41
62462;BME280;48511;38.664;-9.202;2023-02-19T05:53:33;49882.00;;;-146.63;47.28
62462;BME280;48511;38.664;-9.202;2023-02-19T05:55:34;49921.47;;;-146.63;47.50
62462;BME280;48511;38.664;-9.202;2023-02-19T05:57:42;49848.44;;;-146.63;47.75
62462;BME280;48511;38.664;-9.202;2023-02-19T05:59:43;49921.47;;;-146.63;47.32
62462;BME280;48511;38.664;-9.202;2023-02-19T06:01:44;49929.38;;;-146.63;47.47
62462;BME280;48511;38.664;-9.202;2023-02-19T06:03:45;49878.06;;;-146.63;47.62
62462;BME280;48511;38.664;-9.202;2023-02-19T06:05:46;49905.69;;;-146.63;47.50
62462;BME280;48511;38.664;-9.202;2023-02-19T06:07:47;49895.81;;;-146.63;47.79
62462;BME280;48511;38.664;-9.202;2023-02-19T06:09:50;49870.16;;;-146.63;47.69
62462;BME280;48511;38.664;-9.202;2023-02-19T06:11:51;49882.00;;;-146.63;47.67
62462;BME280;48511;38.664;-9.202;2023-02-19T06:13:51;49891.88;;;-146.63;47.53
62462;BME280;48511;38.664;-9.202;2023-02-19T06:15:52;49897.78;;;-146.63;47.59
62462;BME280;48511;38.664;-9.202;2023-02-19T06:17:53;49842.53;;;-146.63;46.89
62462;BME280;48511;38.664;-9.202;2023-02-19T06:19:54;49887.91;;;-146.63;46.89
62462;BME280;48511;38.664;-9.202;2023-02-19T06:21:54;49901.75;;;-146.63;47.02
62462;BME280;48511;38.664;-9.202;2023-02-19T06:23:55;49878.06;;;-146.63;47.06
62462;BME280;48511;38.664;-9.202;2023-02-19T06:28:10;49893.84;;;-146.63;46.86
62462;BME280;48511;38.664;-9.202;2023-02-19T06:30:11;49878.06;;;-146.63;46.95
62462;BME280;48511;38.664;-9.202;2023-02-19T06:32:12;49919.50;;;-146.63;46.89
62462;BME280;48511;38.664;-9.202;2023-02-19T06:34:12;49909.63;;;-146.63;46.83
62462;BME280;48511;38.664;-9.202;2023-02-19T06:36:15;49876.09;;;-146.63;46.97
62462;BME280;48511;38.664;-9.202;2023-02-19T06:38:16;49889.91;;;-146.63;47.14
62462;BME280;48511;38.664;-9.202;2023-02-19T06:40:17;49899.75;;;-146.63;47.29
62462;BME280;48511;38.664;-9.202;2023-02-19T06:42:18;49889.91;;;-146.63;46.97
62462;BME280;48511;38.664;-9.202;2023-02-19T06:44:19;49872.13;;;-146.63;46.92
62462;BME280;48511;38.664;-9.202;2023-02-19T06:46:19;49868.19;;;-146.63;47.02
62462;BME280;48511;38.664;-9.202;2023-02-19T06:48:20;49899.75;;;-146.63;47.09
62462;BME280;48511;38.664;-9.202;2023-02-19T06:50:21;49919.50;;;-146.63;46.80
62462;BME280;48511;38.664;-9.202;2023-02-19T06:52:22;49885.94;;;-146.63;46.68
62462;BME280;48511;38.664;-9.202;2023-02-19T06:54:22;49885.94;;;-146.63;46.63
62462;BME280;48511;38.664;-9.202;2023-02-19T06:56:26;49882.00;;;-146.63;46.59
62462;BME280;48511;38.664;-9.202;2023-02-19T06:58:27;49889.91;;;-146.63;46.76
62462;BME280;48511;38.664;-9.202;2023-02-19T07:00:28;49889.91;;;-146.63;46.68
62462;BME280;48511;38.664;-9.202;2023-02-19T07:02:29;49882.00;;;-146.63;46.88
62462;BME280;48511;38.664;-9.202;2023-02-19T07:04:29;49858.31;;;-146.63;46.95
62462;BME280;48511;38.664;-9.202;2023-02-19T07:06:31;49921.47;;;-146.63;47.18
62462;BME280;48511;38.664;-9.202;2023-02-19T07:08:32;49891.88;;;-146.63;47.15
62462;BME280;48511;38.664;-9.202;2023-02-19T07:10:33;49864.25;;;-146.63;47.03
62462;BME280;48511;38.664;-9.202;2023-02-19T07:12:33;49864.25;;;-146.63;46.98
62462;BME280;48511;38.664;-9.202;2023-02-19T07:14:34;49885.94;;;-146.63;47.02
62462;BME280;48511;38.664;-9.202;2023-02-19T07:16:35;49909.63;;;-146.63;46.98
62462;BME280;48511;38.664;-9.202;2023-02-19T07:18:37;49919.50;;;-146.63;47.14
62462;BME280;48511;38.664;-9.202;2023-02-19T07:20:38;49862.25;;;-146.63;47.25
62462;BME280;48511;38.664;-9.202;2023-02-19T07:22:38;49919.50;;;-146.63;47.49
62462;BME280;48511;38.664;-9.202;2023-02-19T07:24:39;49876.09;;;-146.63;47.27
62462;BME280;48511;38.664;-9.202;2023-02-19T07:26:40;49929.38;;;-146.63;47.18
62462;BME280;48511;38.664;-9.202;2023-02-19T07:28:41;49889.91;;;-146.63;47.31
62462;BME280;48511;38.664;-9.202;2023-02-19T07:30:42;49903.72;;;-146.63;47.42
62462;BME280;48511;38.664;-9.202;2023-02-19T07:32:43;49866.22;;;-146.63;47.44
62462;BME280;48511;38.664;-9.202;2023-02-19T07:34:44;49854.38;;;-146.63;47.46
62462;BME280;48511;38.664;-9.202;2023-02-19T07:36:45;49836.59;;;-146.63;47.43
62462;BME280;48511;38.664;-9.202;2023-02-19T07:38:46;49866.22;;;-146.63;47.44
62462;BME280;48511;38.664;-9.202;2023-02-19T07:40:58;49882.00;;;-146.63;47.46
62462;BME280;48511;38.664;-9.202;2023-02-19T07:42:59;49893.84;;;-146.63;47.42
62462;BME280;48511;38.664;-9.202;2023-02-19T07:45:00;49878.06;;;-146.63;47.23
62462;BME280;48511;38.664;-9.202;2023-02-19T07:47:01;49866.22;;;-146.63;46.96
62462;BME280;48511;38.664;-9.202;2023-02-19T07:49:01;49862.25;;;-146.63;46.95
62462;BME280;48511;38.664;-9.202;2023-02-19T07:51:03;49925.41;;;-146.63;47.09
62462;BME280;48511;38.664;-9.202;2023-02-19T07:53:05;49919.50;;;-146.63;46.83
62462;BME280;48511;38.664;-9.202;2023-02-19T07:55:05;49878.06;;;-146.63;46.92
62462;BME280;48511;38.664;-9.202;2023-02-19T07:57:06;49882.00;;;-146.63;46.86
62462;BME280;48511;38.664;-9.202;2023-02-19T07:59:07;49891.88;;;-146.63;46.66
62462;BME280;48511;38.664;-9.202;2023-02-19T08:01:11;49897.78;;;-146.63;46.83
62462;BME280;48511;38.664;-9.202;2023-02-19T08:03:13;49838.59;;;-146.63;46.51
62462;BME280;48511;38.664;-9.202;2023-02-19T08:05:13;49901.75;;;-146.63;46.61
62462;BME280;48511;38.664;-9.202;2023-02-19T08:07:14;49885.94;;;-146.63;46.67
62462;BME280;48511;38.664;-9.202;2023-02-19T08:09:15;49897.78;;;-146.63;46.82
62462;BME280;48511;38.664;-9.202;2023-02-19T08:11:15;49878.06;;;-146.63;46.70
62462;BME280;48511;38.664;-9.202;2023-02-19T08:13:35;49858.31;;;-146.63;46.61
62462;BME280;48511;38.664;-9.202;2023-02-19T08:15:35;49858.31;;;-146.63;46.63
62462;BME280;48511;38.664;-9.202;2023-02-19T08:17:36;49903.72;;;-146.63;46.97
62462;BME280;48511;38.664;-9.202;2023-02-19T08:19:37;49848.44;;;-146.63;47.02
62462;BME280;48511;38.664;-9.202;2023-02-19T08:21:37;49870.16;;;-146.63;47.18
62462;BME280;48511;38.664;-9.202;2023-02-19T08:23:38;49905.69;;;-146.63;47.12
62462;BME280;48511;38.664;-9.202;2023-02-19T08:25:40;49866.22;;;-146.63;46.83
62462;BME280;48511;38.664;-9.202;2023-02-19T08:27:41;49893.84;;;-146.63;46.71
62462;BME280;48511;38.664;-9.202;2023-02-19T08:29:41;49883.97;;;-146.63;47.08
62462;BME280;48511;38.664;-9.202;2023-02-19T08:31:42;49905.69;;;-146.63;47.08
62462;BME280;48511;38.664;-9.202;2023-02-19T08:33:43;49889.91;;;-146.63;47.21
62462;BME280;48511;38.664;-9.202;2023-02-19T08:35:43;49854.38;;;-146.63;47.32
62462;BME280;48511;38.664;-9.202;2023-02-19T08:37:44;49883.97;;;-146.63;47.18
62462;BME280;48511;38.664;-9.202;2023-02-19T08:39:45;49870.16;;;-146.63;47.15
62462;BME280;48511;38.664;-9.202;2023-02-19T08:41:46;49862.25;;;-146.63;47.26
62462;BME280;48511;38.664;-9.202;2023-02-19T08:43:47;49893.84;;;-146.63;47.53
62462;BME280;48511;38.664;-9.202;2023-02-19T08:45:47;49878.06;;;-146.63;47.67
62462;BME280;48511;38.664;-9.202;2023-02-19T08:47:52;49878.06;;;-146.63;47.90
62462;BME280;48511;38.664;-9.202;2023-02-19T08:49:52;49909.63;;;-146.63;48.13
62462;BME280;48511;38.664;-9.202;2023-02-19T08:51:53;49882.00;;;-146.63;48.48
62462;BME280;48511;38.664;-9.202;2023-02-19T08:53:53;49880.03;;;-146.63;48.76
62462;BME280;48511;38.664;-9.202;2023-02-19T08:55:54;49850.44;;;-146.63;49.17
62462;BME280;48511;38.664;-9.202;2023-02-19T08:57:55;49854.38;;;-146.63;49.15
62462;BME280;48511;38.664;-9.202;2023-02-19T08:59:56;49915.56;;;-146.63;48.86
62462;BME280;48511;38.664;-9.202;2023-02-19T09:01:58;49907.66;;;-146.63;48.93
62462;BME280;48511;38.664;-9.202;2023-02-19T09:03:59;49889.91;;;-146.63;49.17
62462;BME280;48511;38.664;-9.202;2023-02-19T09:05:59;49893.84;;;-146.63;49.18
62462;BME280;48511;38.664;-9.202;2023-02-19T09:08:00;49866.22;;;-146.63;49.28
62462;BME280;48511;38.664;-9.202;2023-02-19T09:10:01;49882.00;;;-146.63;49.35
62462;BME280;48511;38.664;-9.202;2023-02-19T09:12:06;49889.91;;;-146.63;49.52
62462;BME280;48511;38.664;-9.202;2023-02-19T09:14:08;49909.63;;;-146.63;49.58
62462;BME280;48511;38.664;-9.202;2023-02-19T09:16:09;49909.63;;;-146.63;49.59
62462;BME280;48511;38.664;-9.202;2023-02-19T09:18:10;49899.75;;;-146.63;49.50
62462;BME280;48511;38.664;-9.202;2023-02-19T09:20:11;49901.75;;;-146.63;49.49
62462;BME280;48511;38.664;-9.202;2023-02-19T09:22:12;49897.78;;;-146.63;49.04
62462;BME280;48511;38.664;-9.202;2023-02-19T09:24:12;49885.94;;;-146.63;48.97
62462;BME280;48511;38.664;-9.202;2023-02-19T09:26:13;49889.91;;;-146.63;48.64
62462;BME280;48511;38.664;-9.202;2023-02-19T09:28:13;49864.25;;;-146.63;48.61
62462;BME280;48511;38.664;-9.202;2023-02-19T09:30:16;49901.75;;;-146.63;48.41
62462;BME280;48511;38.664;-9.202;2023-02-19T09:32:16;49882.00;;;-146.63;48.46
62462;BME280;48511;38.664;-9.202;2023-02-19T09:34:17;49897.78;;;-146.63;48.60
62462;BME280;48511;38.664;-9.202;2023-02-19T09:36:18;49878.06;;;-146.63;48.60
62462;BME280;48511;38.664;-9.202;2023-02-19T09:38:18;49872.13;;;-146.63;48.92
62462;BME280;48511;38.664;-9.202;2023-02-19T09:40:19;49909.63;;;-146.63;48.83
62462;BME280;48511;38.664;-9.202;2023-02-19T09:42:26;49878.06;;;-146.63;48.62
62462;BME280;48511;38.664;-9.202;2023-02-19T09:44:30;49885.94;;;-146.63;48.66
62462;BME280;48511;38.664;-9.202;2023-02-19T09:46:33;49885.94;;;-146.63;48.90
62462;BME280;48511;38.664;-9.202;2023-02-19T09:48:36;49883.97;;;-146.63;48.60
62462;BME280;48511;38.664;-9.202;2023-02-19T09:50:44;49889.91;;;-146.63;48.35
62462;BME280;48511;38.664;-9.202;2023-02-19T09:52:58;49882.00;;;-146.63;48.31
62462;BME280;48511;38.664;-9.202;2023-02-19T09:55:45;49885.94;;;-146.63;48.11
62462;BME280;48511;38.664;-9.202;2023-02-19T09:57:39;49889.91;;;-146.63;47.40
62462;BME280;48511;38.664;-9.202;2023-02-19T09:59:48;49878.06;;;-146.63;47.15
62462;BME280;48511;38.664;-9.202;2023-02-19T10:01:56;49866.22;;;-146.63;47.07
62462;BME280;48511;38.664;-9.202;2023-02-19T10:03:59;49887.91;;;-146.63;47.21
62462;BME280;48511;38.664;-9.202;2023-02-19T10:06:04;49858.31;;;-146.63;47.32
62462;BME280;48511;38.664;-9.202;2023-02-19T10:08:14;49874.09;;;-146.63;46.61
62462;BME280;48511;38.664;-9.202;2023-02-19T10:10:25;49866.22;;;-146.63;46.74
62462;BME280;48511;38.664;-9.202;2023-02-19T10:12:29;49860.28;;;-146.63;46.54
62462;BME280;48511;38.664;-9.202;2023-02-19T10:14:38;49913.59;;;-146.63;46.48
62462;BME280;48511;38.664;-9.202;2023-02-19T10:16:42;49889.91;;;-146.63;46.68
62462;BME280;48511;38.664;-9.202;2023-02-19T10:18:44;49882.00;;;-146.63;46.52
62462;BME280;48511;38.664;-9.202;2023-02-19T10:20:47;49885.94;;;-146.63;45.58
62462;BME280;48511;38.664;-9.202;2023-02-19T10:22:56;49868.19;;;-146.63;45.53
62462;BME280;48511;38.664;-9.202;2023-02-19T10:24:58;49885.94;;;-146.63;45.63
62462;BME280;48511;38.664;-9.202;2023-02-19T10:26:59;49893.84;;;-146.63;45.32
62462;BME280;48511;38.664;-9.202;2023-02-19T10:29:01;49889.91;;;-146.63;45.04
62462;BME280;48511;38.664;-9.202;2023-02-19T10:31:06;49939.25;;;-146.63;44.27
62462;BME280;48511;38.664;-9.202;2023-02-19T10:33:13;49860.28;;;-146.63;44.22
62462;BME280;48511;38.664;-9.202;2023-02-19T10:35:15;49885.94;;;-146.63;44.49
62462;BME280;48511;38.664;-9.202;2023-02-19T10:37:17;49850.44;;;-146.63;44.10
62462;BME280;48511;38.664;-9.202;2023-02-19T10:41:24;49860.28;;;-146.63;44.33
62462;BME280;48511;38.664;-9.202;2023-02-19T10:43:28;49880.03;;;-146.63;44.49
62462;BME280;48511;38.664;-9.202;2023-02-19T10:45:37;49842.53;;;-146.63;44.57
62462;BME280;48511;38.664;-9.202;2023-02-19T10:47:48;49864.25;;;-146.63;44.59
62462;BME280;48511;38.664;-9.202;2023-02-19T10:49:59;49885.94;;;-146.63;44.30
62462;BME280;48511;38.664;-9.202;2023-02-19T10:52:10;49897.78;;;-146.63;44.29
62462;BME280;48511;38.664;-9.202;2023-02-19T10:54:19;49889.91;;;-146.63;43.80